Time;durP1;ratioP1;P1;durP2;ratioP2;P2;SDS_P1;SDS_P2;PMS_P1;PMS_P2;Temp;Humidity;BMP_temperature;BMP_pressure;BME280_temperature;BME280_humidity;BME280_pressure;Samples;Min_cycle;Max_cycle;Signal;HPM_P1;HPM_P2
2022/08/10 00:02:41;;;;;;;4.80;2.50;;;;;;;;;;5085237;27;20229;-53
2022/08/10 00:05:09;;;;;;;3.90;2.55;;;;;;;;;;5076331;28;20239;-53
2022/08/10 00:07:35;;;;;;;5.88;2.83;;;;;;;;;;5076194;27;20230;-52
2022/08/10 00:10:02;;;;;;;3.33;2.78;;;;;;;;;;5083186;27;20249;-53
2022/08/10 00:12:28;;;;;;;3.17;2.83;;;;;;;;;;5084765;27;20233;-52
2022/08/10 00:14:54;;;;;;;3.38;2.88;;;;;;;;;;5083369;27;20226;-53
2022/08/10 00:17:21;;;;;;;3.97;2.42;;;;;;;;;;5085922;27;20608;-52
2022/08/10 00:19:47;;;;;;;3.72;2.15;;;;;;;;;;5084305;27;20226;-52
2022/08/10 00:22:15;;;;;;;2.85;2.45;;;;;;;;;;5080049;27;20257;-53
2022/08/10 00:24:41;;;;;;;2.60;2.40;;;;;;;;;;5082636;27;20233;-53
2022/08/10 00:27:07;;;;;;;2.72;2.53;;;;;;;;;;5079782;27;20238;-53
2022/08/10 00:29:34;;;;;;;2.65;2.50;;;;;;;;;;5086857;28;20226;-52
2022/08/10 00:32:00;;;;;;;2.72;2.50;;;;;;;;;;5089230;27;20249;-52
2022/08/10 00:34:27;;;;;;;2.92;2.33;;;;;;;;;;5086673;27;20248;-52
2022/08/10 00:36:53;;;;;;;5.20;2.88;;;;;;;;;;5085248;27;20250;-53
2022/08/10 00:39:21;;;;;;;4.80;3.00;;;;;;;;;;5087814;27;20234;-52
2022/08/10 00:41:47;;;;;;;3.30;2.88;;;;;;;;;;5088276;27;20234;-53
2022/08/10 00:44:13;;;;;;;2.75;2.55;;;;;;;;;;5080893;27;20349;-52
2022/08/10 00:46:40;;;;;;;6.15;3.50;;;;;;;;;;5081129;27;20230;-52
2022/08/10 00:49:06;;;;;;;3.65;3.05;;;;;;;;;;5088147;27;20234;-52
2022/08/10 00:51:34;;;;;;;2.97;2.78;;;;;;;;;;5077365;27;20241;-53
2022/08/10 00:54:01;;;;;;;5.50;2.83;;;;;;;;;;5087398;27;20789;-53
2022/08/10 00:56:28;;;;;;;3.22;2.88;;;;;;;;;;5079514;27;20243;-53
2022/08/10 00:58:55;;;;;;;4.28;2.78;;;;;;;;;;5083047;27;20239;-53
2022/08/10 01:01:21;;;;;;;3.35;2.40;;;;;;;;;;5087154;27;20328;-53
2022/08/10 01:03:47;;;;;;;4.07;2.53;;;;;;;;;;5086364;27;20233;-52
2022/08/10 01:06:17;;;;;;;3.55;2.67;;;;;;;;;;5078250;27;20609;-53
2022/08/10 01:08:47;;;;;;;4.38;3.10;;;;;;;;;;5081286;27;20354;-54
2022/08/10 01:11:18;;;;;;;4.25;3.80;;;;;;;;;;5079658;27;20241;-52
2022/08/10 01:13:48;;;;;;;5.00;3.50;;;;;;;;;;5079916;28;20249;-53
2022/08/10 01:16:17;;;;;;;4.82;3.17;;;;;;;;;;5086553;27;20329;-52
2022/08/10 01:18:48;;;;;;;4.25;2.60;;;;;;;;;;5082368;27;20708;-53
2022/08/10 01:21:32;;;;;;;4.28;3.88;;;;;;;;;;5080253;27;20676;-52
2022/08/10 01:24:09;;;;;;;6.57;5.75;;;;;;;;;;5074253;27;20234;-53
2022/08/10 01:26:42;;;;;;;6.65;5.97;;;;;;;;;;5081076;27;20230;-53
2022/08/10 01:29:28;;;;;;;6.07;5.53;;;;;;;;;;5085653;27;20362;-54
2022/08/10 01:31:57;;;;;;;5.57;5.07;;;;;;;;;;5086676;27;20295;-55
2022/08/10 01:34:25;;;;;;;4.40;4.00;;;;;;;;;;5080029;27;20233;-53
2022/08/10 01:36:53;;;;;;;4.30;3.63;;;;;;;;;;5081573;27;20700;-53
2022/08/10 01:39:22;;;;;;;4.22;3.92;;;;;;;;;;5083166;27;20273;-52
2022/08/10 01:41:50;;;;;;;3.65;3.35;;;;;;;;;;5083761;27;20238;-54
2022/08/10 01:44:23;;;;;;;6.00;3.50;;;;;;;;;;5080390;27;20313;-51
2022/08/10 01:46:52;;;;;;;4.13;3.60;;;;;;;;;;5081699;27;20222;-53
2022/08/10 01:49:19;;;;;;;3.63;3.28;;;;;;;;;;5079348;27;20239;-53
2022/08/10 01:51:49;;;;;;;3.88;3.50;;;;;;;;;;5072566;27;20244;-52
2022/08/10 01:54:18;;;;;;;3.08;2.80;;;;;;;;;;5087503;27;20241;-52
2022/08/10 01:56:46;;;;;;;6.15;3.88;;;;;;;;;;5084043;27;25792;-52
2022/08/10 01:59:15;;;;;;;3.67;3.38;;;;;;;;;;5081403;28;20708;-53
2022/08/10 02:01:43;;;;;;;4.43;3.60;;;;;;;;;;5073070;27;20234;-52
2022/08/10 02:04:10;;;;;;;4.63;3.53;;;;;;;;;;5077759;27;20239;-52
2022/08/10 02:06:39;;;;;;;7.18;4.43;;;;;;;;;;5082980;27;20374;-52
2022/08/10 02:09:06;;;;;;;8.95;4.20;;;;;;;;;;5074474;27;20236;-53
2022/08/10 02:11:33;;;;;;;4.40;3.17;;;;;;;;;;5074372;27;20237;-52
2022/08/10 02:14:00;;;;;;;6.20;3.78;;;;;;;;;;5083496;27;20230;-53
2022/08/10 02:16:26;;;;;;;4.30;3.47;;;;;;;;;;5087658;27;20329;-53
2022/08/10 02:18:53;;;;;;;7.35;3.45;;;;;;;;;;5084363;27;20231;-52
2022/08/10 02:21:20;;;;;;;3.63;3.15;;;;;;;;;;5087863;27;20262;-58
2022/08/10 02:23:49;;;;;;;4.38;3.78;;;;;;;;;;5082733;27;20230;-52
2022/08/10 02:26:15;;;;;;;5.22;4.30;;;;;;;;;;5082865;27;21845;-53
2022/08/10 02:28:42;;;;;;;5.28;3.63;;;;;;;;;;5078445;27;20237;-53
2022/08/10 02:31:09;;;;;;;3.97;3.42;;;;;;;;;;5080534;27;20279;-53
2022/08/10 02:33:37;;;;;;;9.40;3.90;;;;;;;;;;5080217;27;20222;-53
2022/08/10 02:36:04;;;;;;;4.57;3.90;;;;;;;;;;5087662;27;20664;-52
2022/08/10 02:38:32;;;;;;;7.05;4.68;;;;;;;;;;5082118;27;20233;-53
2022/08/10 02:41:04;;;;;;;4.07;3.65;;;;;;;;;;5080735;28;20329;-52
2022/08/10 02:43:34;;;;;;;3.28;2.88;;;;;;;;;;5083890;27;20227;-53
2022/08/10 02:46:03;;;;;;;5.05;3.78;;;;;;;;;;5082585;27;20230;-53
2022/08/10 02:48:34;;;;;;;5.88;3.97;;;;;;;;;;5077153;27;20770;-52
2022/08/10 02:51:03;;;;;;;4.15;3.80;;;;;;;;;;5078158;27;20242;-53
2022/08/10 02:53:32;;;;;;;4.90;4.20;;;;;;;;;;5087266;27;20233;-53
2022/08/10 02:56:02;;;;;;;4.53;3.45;;;;;;;;;;5084842;27;20238;-53
2022/08/10 02:58:31;;;;;;;6.47;4.50;;;;;;;;;;5082399;27;20260;-52
2022/08/10 03:00:59;;;;;;;5.10;4.50;;;;;;;;;;5087396;27;20283;-52
2022/08/10 03:03:28;;;;;;;5.20;4.03;;;;;;;;;;5086215;28;20234;-54
2022/08/10 03:05:56;;;;;;;6.80;4.25;;;;;;;;;;5080101;27;20230;-53
2022/08/10 03:08:25;;;;;;;5.88;4.38;;;;;;;;;;5079934;27;20237;-53
2022/08/10 03:10:52;;;;;;;8.02;4.03;;;;;;;;;;5082092;28;20227;-52
2022/08/10 03:13:21;;;;;;;4.63;4.07;;;;;;;;;;5087800;27;20234;-54
2022/08/10 03:15:48;;;;;;;6.43;4.53;;;;;;;;;;5084784;27;20246;-54
2022/08/10 03:18:16;;;;;;;8.25;4.57;;;;;;;;;;5085693;27;20241;-52
2022/08/10 03:20:43;;;;;;;5.55;5.03;;;;;;;;;;5075459;27;20238;-53
2022/08/10 03:23:12;;;;;;;5.50;4.50;;;;;;;;;;5080937;27;20230;-52
2022/08/10 03:25:39;;;;;;;8.73;4.88;;;;;;;;;;5081947;27;20230;-53
2022/08/10 03:28:05;;;;;;;4.20;3.75;;;;;;;;;;5076897;27;20231;-52
2022/08/10 03:30:33;;;;;;;7.05;4.40;;;;;;;;;;5082104;27;20237;-53
2022/08/10 03:33:00;;;;;;;6.30;5.05;;;;;;;;;;5082701;27;20327;-53
2022/08/10 03:35:27;;;;;;;5.07;4.07;;;;;;;;;;5081883;27;20242;-54
2022/08/10 03:37:53;;;;;;;7.03;4.82;;;;;;;;;;5086690;27;20230;-52
2022/08/10 03:40:20;;;;;;;5.95;4.22;;;;;;;;;;5078166;27;20242;-52
2022/08/10 03:42:47;;;;;;;6.82;4.70;;;;;;;;;;5081893;27;20238;-53
2022/08/10 03:45:14;;;;;;;5.60;4.30;;;;;;;;;;5088744;27;20225;-52
2022/08/10 03:47:42;;;;;;;4.85;4.40;;;;;;;;;;5079721;27;20233;-53
2022/08/10 03:50:10;;;;;;;4.05;3.60;;;;;;;;;;5078369;27;20632;-53
2022/08/10 03:52:36;;;;;;;5.00;4.20;;;;;;;;;;5076045;27;20231;-53
2022/08/10 03:55:03;;;;;;;5.90;4.45;;;;;;;;;;5077916;27;20238;-53
2022/08/10 03:57:29;;;;;;;11.23;4.72;;;;;;;;;;5077495;27;20226;-53
2022/08/10 03:59:56;;;;;;;5.20;4.28;;;;;;;;;;5067545;27;20241;-54
2022/08/10 04:02:23;;;;;;;5.50;4.93;;;;;;;;;;5086318;27;20229;-52
2022/08/10 04:04:50;;;;;;;8.30;4.47;;;;;;;;;;5085218;27;20238;-53
2022/08/10 04:07:17;;;;;;;10.60;5.13;;;;;;;;;;5081294;27;20246;-52
2022/08/10 04:09:44;;;;;;;4.55;3.92;;;;;;;;;;5085122;27;20256;-53
2022/08/10 04:12:11;;;;;;;5.00;4.43;;;;;;;;;;5083406;27;20379;-53
2022/08/10 04:14:37;;;;;;;9.98;5.25;;;;;;;;;;5081610;27;20238;-53
2022/08/10 04:17:03;;;;;;;6.75;4.35;;;;;;;;;;5081103;27;20245;-53
2022/08/10 04:19:34;;;;;;;8.35;5.00;;;;;;;;;;5084877;27;20230;-53
2022/08/10 04:22:04;;;;;;;8.15;5.75;;;;;;;;;;5078757;27;20232;-52
2022/08/10 04:24:32;;;;;;;5.72;4.45;;;;;;;;;;5085958;27;20226;-51
2022/08/10 04:26:59;;;;;;;5.97;4.75;;;;;;;;;;5092041;27;20238;-54
2022/08/10 04:29:25;;;;;;;5.05;4.35;;;;;;;;;;5080745;27;20235;-53
2022/08/10 04:31:52;;;;;;;6.35;5.07;;;;;;;;;;5086105;27;20234;-53
2022/08/10 04:34:20;;;;;;;5.20;4.18;;;;;;;;;;5087649;27;20231;-53
2022/08/10 04:36:47;;;;;;;6.95;5.00;;;;;;;;;;5080286;27;20264;-54
2022/08/10 04:39:14;;;;;;;5.90;5.30;;;;;;;;;;5081196;27;20727;-51
2022/08/10 04:41:41;;;;;;;7.85;5.03;;;;;;;;;;5073626;27;20238;-53
2022/08/10 04:44:07;;;;;;;6.85;5.93;;;;;;;;;;5073794;27;20233;-54
2022/08/10 04:46:34;;;;;;;9.10;5.47;;;;;;;;;;5081163;27;20309;-54
2022/08/10 04:49:00;;;;;;;7.50;5.32;;;;;;;;;;5073566;27;20242;-53
2022/08/10 04:51:26;;;;;;;6.68;4.43;;;;;;;;;;5084336;27;20239;-54
2022/08/10 04:53:53;;;;;;;6.32;4.60;;;;;;;;;;5073215;27;20428;-54
2022/08/10 04:56:20;;;;;;;6.07;5.18;;;;;;;;;;5082995;27;20253;-53
2022/08/10 04:58:47;;;;;;;6.63;5.28;;;;;;;;;;5083080;27;20325;-54
2022/08/10 05:01:14;;;;;;;5.90;5.40;;;;;;;;;;5088519;27;20242;-53
2022/08/10 05:03:40;;;;;;;6.20;5.57;;;;;;;;;;5088447;27;20761;-53
2022/08/10 05:06:07;;;;;;;7.30;5.10;;;;;;;;;;5085961;27;20803;-52
2022/08/10 05:08:33;;;;;;;6.72;5.28;;;;;;;;;;5087753;27;20227;-54
2022/08/10 05:10:59;;;;;;;5.75;5.15;;;;;;;;;;5081896;27;20901;-53
2022/08/10 05:13:28;;;;;;;4.68;4.28;;;;;;;;;;5083774;27;20227;-61
2022/08/10 05:15:55;;;;;;;5.97;5.25;;;;;;;;;;5073073;27;20592;-54
2022/08/10 05:18:21;;;;;;;8.43;5.45;;;;;;;;;;5086774;28;20231;-53
2022/08/10 05:20:48;;;;;;;9.65;5.40;;;;;;;;;;5086750;27;20235;-52
2022/08/10 05:23:14;;;;;;;6.80;4.82;;;;;;;;;;5086431;27;20310;-53
2022/08/10 05:25:41;;;;;;;6.85;4.85;;;;;;;;;;5088964;27;20647;-52
2022/08/10 05:28:07;;;;;;;5.60;4.72;;;;;;;;;;5083183;27;20238;-53
2022/08/10 05:30:35;;;;;;;5.15;4.65;;;;;;;;;;5089586;27;20745;-53
2022/08/10 05:33:01;;;;;;;4.70;3.65;;;;;;;;;;5080154;27;20266;-53
2022/08/10 05:35:28;;;;;;;9.05;4.80;;;;;;;;;;5082810;27;20233;-53
2022/08/10 05:37:56;;;;;;;8.20;5.10;;;;;;;;;;5069890;27;20235;-52
2022/08/10 05:40:23;;;;;;;5.50;4.90;;;;;;;;;;5079965;27;20321;-52
2022/08/10 05:42:49;;;;;;;4.55;4.15;;;;;;;;;;5072856;27;20235;-53
2022/08/10 05:45:18;;;;;;;4.65;3.95;;;;;;;;;;5084182;27;20234;-54
2022/08/10 05:47:46;;;;;;;9.27;4.65;;;;;;;;;;5079978;27;20230;-53
2022/08/10 05:50:14;;;;;;;7.25;4.78;;;;;;;;;;5085673;27;20727;-54
2022/08/10 05:52:41;;;;;;;7.32;4.63;;;;;;;;;;5080526;27;20705;-53
2022/08/10 05:55:08;;;;;;;5.47;4.22;;;;;;;;;;5077496;27;20231;-53
2022/08/10 05:57:36;;;;;;;6.13;4.28;;;;;;;;;;5081145;27;20832;-52
2022/08/10 06:00:05;;;;;;;5.65;5.00;;;;;;;;;;5075952;27;20259;-53
2022/08/10 06:02:32;;;;;;;4.75;4.00;;;;;;;;;;5090133;27;20237;-53
2022/08/10 06:05:00;;;;;;;7.07;4.22;;;;;;;;;;5076671;27;20231;-53
2022/08/10 06:07:28;;;;;;;4.97;4.28;;;;;;;;;;5072845;27;20291;-54
2022/08/10 06:09:55;;;;;;;5.03;4.20;;;;;;;;;;5077706;27;20237;-54
2022/08/10 06:12:21;;;;;;;6.45;4.60;;;;;;;;;;5082274;27;20242;-54
2022/08/10 06:14:59;;;;;;;6.85;4.25;;;;;;;;;;5083471;27;20653;-54
2022/08/10 06:17:26;;;;;;;6.13;5.03;;;;;;;;;;5077181;27;20246;-53
2022/08/10 06:19:53;;;;;;;4.78;3.88;;;;;;;;;;5082852;27;20218;-54
2022/08/10 06:22:21;;;;;;;6.50;3.47;;;;;;;;;;5075424;27;20235;-53
2022/08/10 06:24:47;;;;;;;4.65;3.97;;;;;;;;;;5076008;27;20245;-54
2022/08/10 06:27:13;;;;;;;4.90;4.38;;;;;;;;;;5077491;27;20229;-51
2022/08/10 06:29:41;;;;;;;8.38;3.80;;;;;;;;;;5081024;27;20230;-52
2022/08/10 06:32:08;;;;;;;4.13;3.78;;;;;;;;;;5073570;27;20232;-52
2022/08/10 06:34:37;;;;;;;3.95;3.65;;;;;;;;;;5079225;27;20230;-53
2022/08/10 06:37:04;;;;;;;5.32;3.97;;;;;;;;;;5070432;27;20257;-53
2022/08/10 06:39:32;;;;;;;7.78;3.67;;;;;;;;;;5081099;27;20223;-52
2022/08/10 06:42:01;;;;;;;4.80;3.92;;;;;;;;;;5076244;27;20711;-53
2022/08/10 06:44:29;;;;;;;5.60;4.22;;;;;;;;;;5081864;27;20488;-53
2022/08/10 06:46:57;;;;;;;3.88;3.55;;;;;;;;;;5079761;27;20250;-53
2022/08/10 06:49:24;;;;;;;4.30;3.90;;;;;;;;;;5071960;28;20231;-52
2022/08/10 06:51:52;;;;;;;4.55;4.15;;;;;;;;;;5072758;27;20238;-53
2022/08/10 06:54:22;;;;;;;3.95;3.53;;;;;;;;;;5078909;27;20233;-53
2022/08/10 06:56:51;;;;;;;4.70;3.58;;;;;;;;;;5070743;27;20238;-51
2022/08/10 06:59:19;;;;;;;4.97;3.70;;;;;;;;;;5079377;27;20291;-53
2022/08/10 07:01:48;;;;;;;4.57;3.88;;;;;;;;;;5083573;27;20758;-51
2022/08/10 07:04:17;;;;;;;4.03;3.55;;;;;;;;;;5077049;27;20281;-51
2022/08/10 07:06:45;;;;;;;6.15;4.10;;;;;;;;;;5081673;27;20241;-53
2022/08/10 07:09:13;;;;;;;4.82;3.80;;;;;;;;;;5081604;27;20245;-53
2022/08/10 07:11:39;;;;;;;4.65;4.10;;;;;;;;;;5081641;27;20231;-52
2022/08/10 07:14:08;;;;;;;3.60;3.17;;;;;;;;;;5076134;28;20314;-52
2022/08/10 07:16:35;;;;;;;4.72;3.20;;;;;;;;;;5086368;27;20755;-53
2022/08/10 07:19:01;;;;;;;4.57;3.75;;;;;;;;;;5082216;27;20231;-53
2022/08/10 07:21:29;;;;;;;4.82;3.05;;;;;;;;;;5081058;27;20262;-52
2022/08/10 07:23:56;;;;;;;5.60;3.33;;;;;;;;;;5079545;27;20427;-52
2022/08/10 07:26:23;;;;;;;3.15;2.85;;;;;;;;;;5076505;27;20234;-52
2022/08/10 07:28:50;;;;;;;4.38;3.47;;;;;;;;;;5082564;27;20327;-54
2022/08/10 07:31:20;;;;;;;4.18;3.10;;;;;;;;;;5073064;27;20246;-54
2022/08/10 07:33:46;;;;;;;5.10;3.55;;;;;;;;;;5083391;27;20230;-51
2022/08/10 07:36:13;;;;;;;5.28;3.42;;;;;;;;;;5080218;27;20253;-53
2022/08/10 07:38:40;;;;;;;5.35;3.88;;;;;;;;;;5073538;27;20603;-52
2022/08/10 07:41:07;;;;;;;3.55;3.13;;;;;;;;;;5081679;27;20381;-53
2022/08/10 07:43:37;;;;;;;3.47;3.20;;;;;;;;;;5078067;28;20226;-52
2022/08/10 07:46:04;;;;;;;2.65;2.38;;;;;;;;;;5081078;27;20368;-53
2022/08/10 07:48:33;;;;;;;3.83;2.72;;;;;;;;;;5075139;27;20230;-53
2022/08/10 07:51:00;;;;;;;3.92;3.22;;;;;;;;;;5077153;27;20794;-52
2022/08/10 07:53:28;;;;;;;3.45;2.70;;;;;;;;;;5081443;27;20254;-55
2022/08/10 07:55:55;;;;;;;2.97;2.78;;;;;;;;;;5082672;27;20238;-51
2022/08/10 07:58:24;;;;;;;4.25;3.30;;;;;;;;;;5079798;27;20231;-52
2022/08/10 08:00:52;;;;;;;6.43;2.85;;;;;;;;;;5077837;27;20246;-53
2022/08/10 08:03:20;;;;;;;3.47;2.80;;;;;;;;;;5072941;27;20732;-53
2022/08/10 08:05:48;;;;;;;3.78;3.40;;;;;;;;;;5081202;27;20243;-53
2022/08/10 08:08:15;;;;;;;3.08;2.78;;;;;;;;;;5080934;27;20237;-52
2022/08/10 08:10:42;;;;;;;3.05;2.80;;;;;;;;;;5070625;27;20245;-53
2022/08/10 08:13:09;;;;;;;4.53;2.60;;;;;;;;;;5073638;27;20955;-54
2022/08/10 08:15:35;;;;;;;7.20;2.97;;;;;;;;;;5082647;27;20258;-53
2022/08/10 08:18:04;;;;;;;5.15;3.33;;;;;;;;;;5074507;27;20255;-53
2022/08/10 08:20:30;;;;;;;5.78;3.25;;;;;;;;;;5073797;27;20235;-53
2022/08/10 08:22:58;;;;;;;2.65;2.30;;;;;;;;;;5073085;27;20234;-57
2022/08/10 08:25:25;;;;;;;4.07;2.63;;;;;;;;;;5072943;27;20238;-53
2022/08/10 08:27:54;;;;;;;2.25;2.05;;;;;;;;;;5077702;27;20230;-52
2022/08/10 08:30:21;;;;;;;2.67;2.45;;;;;;;;;;5085202;27;20235;-53
2022/08/10 08:32:48;;;;;;;2.47;2.28;;;;;;;;;;5083255;27;20318;-53
2022/08/10 08:35:15;;;;;;;2.50;2.15;;;;;;;;;;5071521;27;21173;-54
2022/08/10 08:37:42;;;;;;;2.60;2.22;;;;;;;;;;5074010;27;20237;-52
2022/08/10 08:40:11;;;;;;;2.38;2.17;;;;;;;;;;5082088;27;20226;-54
2022/08/10 08:42:56;;;;;;;2.72;2.03;;;;;;;;;;5085774;27;20701;-53
2022/08/10 08:45:24;;;;;;;2.47;2.28;;;;;;;;;;5073587;27;20234;-52
2022/08/10 08:48:06;;;;;;;4.05;2.47;;;;;;;;;;5083724;27;20724;-54
2022/08/10 08:50:39;;;;;;;3.15;1.77;;;;;;;;;;5087239;27;20718;-53
2022/08/10 08:53:15;;;;;;;4.60;2.65;;;;;;;;;;5083912;27;20234;-53
2022/08/10 08:55:45;;;;;;;4.47;2.60;;;;;;;;;;5082176;27;20226;-53
2022/08/10 08:58:24;;;;;;;2.40;2.20;;;;;;;;;;5073888;27;20259;-54
2022/08/10 09:00:56;;;;;;;3.15;2.15;;;;;;;;;;5078068;27;20231;-54
2022/08/10 09:03:38;;;;;;;3.30;2.10;;;;;;;;;;5083468;27;20844;-54
2022/08/10 09:06:12;;;;;;;1.95;1.83;;;;;;;;;;5074895;27;20685;-53
2022/08/10 09:08:53;;;;;;;3.42;2.08;;;;;;;;;;5085076;27;20247;-53
2022/08/10 09:11:28;;;;;;;2.85;1.80;;;;;;;;;;5086288;27;20234;-53
2022/08/10 09:14:06;;;;;;;2.08;1.85;;;;;;;;;;5070267;28;20341;-54
2022/08/10 09:16:37;;;;;;;2.13;1.90;;;;;;;;;;5081433;28;20272;-54
2022/08/10 09:19:06;;;;;;;1.95;1.70;;;;;;;;;;5076828;27;20309;-54
2022/08/10 09:21:36;;;;;;;2.20;1.40;;;;;;;;;;5089658;27;20748;-54
2022/08/10 09:24:04;;;;;;;3.30;1.63;;;;;;;;;;5080052;27;20614;-56
2022/08/10 09:26:35;;;;;;;1.63;1.33;;;;;;;;;;5086254;27;20317;-54
2022/08/10 09:29:02;;;;;;;7.25;1.70;;;;;;;;;;5076602;27;20853;-54
2022/08/10 09:31:33;;;;;;;1.65;1.55;;;;;;;;;;5086093;27;20230;-54
2022/08/10 09:34:05;;;;;;;2.85;1.63;;;;;;;;;;5084753;27;20237;-54
2022/08/10 09:36:36;;;;;;;4.40;1.70;;;;;;;;;;5079699;27;20226;-55
2022/08/10 09:39:07;;;;;;;1.70;1.60;;;;;;;;;;5081034;27;20241;-54
2022/08/10 09:41:39;;;;;;;1.35;1.20;;;;;;;;;;5078549;27;20584;-53
2022/08/10 09:44:09;;;;;;;1.38;1.27;;;;;;;;;;5080775;27;20227;-54
2022/08/10 09:46:50;;;;;;;1.60;1.50;;;;;;;;;;5074092;27;20322;-53
2022/08/10 09:49:19;;;;;;;3.05;1.55;;;;;;;;;;5082756;27;20321;-54
2022/08/10 09:51:52;;;;;;;2.45;1.17;;;;;;;;;;5071264;27;20853;-54
2022/08/10 09:54:35;;;;;;;1.75;1.50;;;;;;;;;;5081639;27;20230;-54
2022/08/10 09:57:09;;;;;;;1.52;1.30;;;;;;;;;;5074741;27;20334;-54
2022/08/10 09:59:47;;;;;;;1.30;1.20;;;;;;;;;;5076449;27;20229;-53
2022/08/10 10:02:18;;;;;;;2.42;1.42;;;;;;;;;;5072160;27;20239;-52
2022/08/10 10:04:51;;;;;;;3.17;1.50;;;;;;;;;;5092723;27;20224;-54
2022/08/10 10:07:26;;;;;;;1.83;1.73;;;;;;;;;;5075470;27;20253;-54
2022/08/10 10:09:55;;;;;;;2.25;1.17;;;;;;;;;;5080262;27;20231;-53
2022/08/10 10:12:26;;;;;;;2.15;1.65;;;;;;;;;;5069142;27;20235;-52
2022/08/10 10:17:47;;;;;;;2.15;1.38;;;;;;;;;;5079342;27;20764;-53
2022/08/10 10:20:16;;;;;;;3.33;1.77;;;;;;;;;;5084358;27;20238;-52
2022/08/10 10:22:51;;;;;;;1.95;1.85;;;;;;;;;;5072919;27;20232;-52
2022/08/10 10:25:26;;;;;;;3.72;2.00;;;;;;;;;;5085177;27;20238;-53
2022/08/10 10:28:02;;;;;;;2.10;1.58;;;;;;;;;;5055370;28;20376;-54
2022/08/10 10:30:31;;;;;;;2.10;1.60;;;;;;;;;;5077828;27;20237;-53
2022/08/10 10:33:00;;;;;;;1.67;1.13;;;;;;;;;;5082187;27;20238;-55
2022/08/10 10:35:29;;;;;;;2.78;1.73;;;;;;;;;;5076043;27;20234;-53
2022/08/10 10:37:55;;;;;;;6.38;1.70;;;;;;;;;;5075377;27;20230;-54
2022/08/10 10:40:23;;;;;;;7.65;1.70;;;;;;;;;;5074551;27;20257;-53
2022/08/10 10:42:52;;;;;;;3.03;1.88;;;;;;;;;;5067426;27;20254;-54
2022/08/10 10:45:22;;;;;;;1.67;1.58;;;;;;;;;;5074142;27;20318;-55
2022/08/10 10:47:52;;;;;;;2.95;1.75;;;;;;;;;;5076441;27;20253;-53
2022/08/10 10:50:22;;;;;;;5.50;1.60;;;;;;;;;;5081553;27;20238;-55
2022/08/10 10:52:51;;;;;;;1.70;1.52;;;;;;;;;;5079915;27;20253;-53
2022/08/10 10:55:20;;;;;;;4.57;1.60;;;;;;;;;;5073616;27;20242;-53
2022/08/10 10:57:51;;;;;;;2.35;1.38;;;;;;;;;;5072357;27;20226;-54
2022/08/10 11:00:20;;;;;;;2.70;1.48;;;;;;;;;;5087761;27;20258;-54
2022/08/10 11:02:55;;;;;;;1.85;1.40;;;;;;;;;;5085442;27;20756;-53
2022/08/10 11:05:26;;;;;;;1.65;1.55;;;;;;;;;;5083601;27;20264;-54
2022/08/10 11:07:54;;;;;;;1.70;1.60;;;;;;;;;;5078232;27;21037;-53
2022/08/10 11:10:23;;;;;;;1.63;1.52;;;;;;;;;;5072943;27;20380;-52
2022/08/10 11:12:53;;;;;;;1.23;1.13;;;;;;;;;;5073440;28;20238;-53
2022/08/10 11:15:23;;;;;;;2.25;1.33;;;;;;;;;;5083905;27;20692;-53
2022/08/10 11:17:54;;;;;;;1.77;1.35;;;;;;;;;;5079577;27;20587;-54
2022/08/10 11:20:23;;;;;;;1.65;1.50;;;;;;;;;;5081266;27;20237;-51
2022/08/10 11:22:53;;;;;;;3.08;1.50;;;;;;;;;;5080330;27;20721;-53
2022/08/10 11:25:22;;;;;;;3.63;1.65;;;;;;;;;;5069736;28;20231;-52
2022/08/10 11:27:50;;;;;;;3.10;1.77;;;;;;;;;;5074971;27;20705;-52
2022/08/10 11:30:18;;;;;;;1.50;1.40;;;;;;;;;;5076832;27;20231;-54
2022/08/10 11:32:51;;;;;;;1.17;1.02;;;;;;;;;;5075204;27;20235;-52
2022/08/10 11:35:22;;;;;;;2.88;1.42;;;;;;;;;;5068816;27;20238;-53
2022/08/10 11:37:54;;;;;;;2.13;1.65;;;;;;;;;;5070502;27;20336;-53
2022/08/10 11:40:22;;;;;;;2.25;1.35;;;;;;;;;;5082654;27;20230;-52
2022/08/10 11:42:55;;;;;;;1.90;1.55;;;;;;;;;;5081347;27;20317;-52
2022/08/10 11:45:25;;;;;;;2.45;1.33;;;;;;;;;;5082019;27;20357;-54
2022/08/10 11:47:53;;;;;;;2.63;1.85;;;;;;;;;;5073943;27;20605;-53
2022/08/10 11:50:23;;;;;;;4.95;1.60;;;;;;;;;;5078995;27;20603;-52
2022/08/10 11:52:53;;;;;;;4.40;1.70;;;;;;;;;;5080158;27;20230;-53
2022/08/10 11:55:21;;;;;;;12.20;3.15;;;;;;;;;;5084447;27;20230;-53
2022/08/10 11:57:49;;;;;;;4.00;1.73;;;;;;;;;;5082472;27;20262;-54
2022/08/10 12:00:15;;;;;;;1.90;1.38;;;;;;;;;;5078038;27;20704;-54
2022/08/10 12:02:44;;;;;;;3.42;1.85;;;;;;;;;;5073574;27;20238;-53
2022/08/10 12:05:11;;;;;;;1.30;1.20;;;;;;;;;;5079445;27;20234;-54
2022/08/10 12:07:41;;;;;;;1.30;1.20;;;;;;;;;;5080188;27;20234;-53
2022/08/10 12:10:08;;;;;;;1.88;1.63;;;;;;;;;;5078003;27;20246;-55
2022/08/10 12:12:41;;;;;;;1.48;1.38;;;;;;;;;;5081651;27;20226;-52
2022/08/10 12:15:10;;;;;;;2.70;1.90;;;;;;;;;;5080656;27;20241;-53
2022/08/10 12:17:39;;;;;;;1.83;1.70;;;;;;;;;;5068122;27;20229;-53
2022/08/10 12:20:08;;;;;;;1.25;0.98;;;;;;;;;;5074887;27;20241;-53
2022/08/10 12:22:38;;;;;;;3.00;1.15;;;;;;;;;;5075417;27;20225;-54
2022/08/10 12:25:09;;;;;;;1.60;1.50;;;;;;;;;;5080847;27;20234;-53
2022/08/10 12:27:38;;;;;;;2.83;2.08;;;;;;;;;;5080853;27;20477;-53
2022/08/10 12:30:06;;;;;;;2.13;1.70;;;;;;;;;;5078273;27;20724;-52
2022/08/10 12:32:41;;;;;;;2.05;1.52;;;;;;;;;;5067122;27;20237;-52
2022/08/10 12:35:13;;;;;;;2.40;1.80;;;;;;;;;;5068971;28;20241;-54
2022/08/10 12:37:50;;;;;;;1.45;1.30;;;;;;;;;;5073560;27;20223;-53
2022/08/10 12:40:21;;;;;;;1.55;1.30;;;;;;;;;;5071309;27;20236;-53
2022/08/10 12:42:50;;;;;;;1.52;1.20;;;;;;;;;;5080805;27;20223;-54
2022/08/10 12:45:19;;;;;;;2.22;1.17;;;;;;;;;;5081877;27;20241;-53
2022/08/10 12:47:50;;;;;;;1.40;1.30;;;;;;;;;;5071197;27;20730;-53
2022/08/10 12:50:19;;;;;;;2.40;1.40;;;;;;;;;;5078401;27;20242;-52
2022/08/10 12:52:56;;;;;;;1.60;1.50;;;;;;;;;;5077396;27;20347;-52
2022/08/10 12:55:25;;;;;;;1.50;1.33;;;;;;;;;;5081134;27;20236;-54
2022/08/10 12:57:52;;;;;;;1.25;1.15;;;;;;;;;;5077735;27;20236;-54
2022/08/10 13:00:18;;;;;;;3.58;1.30;;;;;;;;;;5068254;27;20670;-57
2022/08/10 13:02:45;;;;;;;4.97;1.63;;;;;;;;;;5073399;27;20595;-52
2022/08/10 13:05:12;;;;;;;1.67;1.58;;;;;;;;;;5074190;27;20236;-53
2022/08/10 13:07:39;;;;;;;1.45;1.33;;;;;;;;;;5080674;27;20230;-53
2022/08/10 13:10:08;;;;;;;2.25;1.65;;;;;;;;;;5078503;27;20712;-54
2022/08/10 13:12:37;;;;;;;2.95;1.55;;;;;;;;;;5079211;27;20769;-52
2022/08/10 13:15:07;;;;;;;1.65;1.35;;;;;;;;;;5077300;27;20238;-54
2022/08/10 13:17:34;;;;;;;1.73;1.38;;;;;;;;;;5057291;27;20908;-53
2022/08/10 13:20:04;;;;;;;1.45;1.35;;;;;;;;;;5070446;27;20234;-53
2022/08/10 13:22:32;;;;;;;2.13;1.15;;;;;;;;;;5080380;28;20271;-54
2022/08/10 13:25:02;;;;;;;1.40;1.30;;;;;;;;;;5086194;27;20345;-53
2022/08/10 13:27:30;;;;;;;1.15;1.05;;;;;;;;;;5078134;27;20232;-52
2022/08/10 13:30:00;;;;;;;1.45;1.30;;;;;;;;;;5082386;28;20229;-54
2022/08/10 13:32:26;;;;;;;1.50;1.40;;;;;;;;;;5078279;27;20234;-52
2022/08/10 13:34:53;;;;;;;1.40;1.30;;;;;;;;;;5079677;27;20245;-53
2022/08/10 13:37:22;;;;;;;1.73;1.20;;;;;;;;;;5083759;27;20241;-53
2022/08/10 13:39:50;;;;;;;1.30;1.20;;;;;;;;;;5080069;27;20238;-53
2022/08/10 13:42:18;;;;;;;2.38;1.30;;;;;;;;;;5078450;27;20246;-53
2022/08/10 13:44:47;;;;;;;1.40;1.30;;;;;;;;;;5077136;27;20234;-52
2022/08/10 13:47:17;;;;;;;8.23;1.90;;;;;;;;;;5082325;27;20237;-53
2022/08/10 13:49:45;;;;;;;3.28;1.00;;;;;;;;;;5082321;27;20225;-54
2022/08/10 13:52:12;;;;;;;1.58;1.48;;;;;;;;;;5083463;27;20233;-54
2022/08/10 13:54:39;;;;;;;2.85;1.60;;;;;;;;;;5082960;27;20232;-53
2022/08/10 13:57:06;;;;;;;1.48;1.38;;;;;;;;;;5072090;27;20230;-53
2022/08/10 13:59:33;;;;;;;1.15;1.10;;;;;;;;;;5071484;28;20257;-53
2022/08/10 14:02:00;;;;;;;2.05;1.50;;;;;;;;;;5078249;27;20241;-54
2022/08/10 14:04:28;;;;;;;3.25;1.55;;;;;;;;;;5079293;27;20323;-53
2022/08/10 14:06:56;;;;;;;1.90;1.42;;;;;;;;;;5072031;27;20237;-52
2022/08/10 14:09:25;;;;;;;1.73;1.38;;;;;;;;;;5078485;28;20261;-53
2022/08/10 14:11:53;;;;;;;1.40;1.30;;;;;;;;;;5079963;27;20269;-54
2022/08/10 14:14:20;;;;;;;1.50;1.40;;;;;;;;;;5076252;27;20226;-52
2022/08/10 14:16:47;;;;;;;1.55;1.40;;;;;;;;;;5075660;27;20231;-53
2022/08/10 14:19:16;;;;;;;1.55;1.42;;;;;;;;;;5080784;27;20251;-54
2022/08/10 14:21:43;;;;;;;3.28;1.30;;;;;;;;;;5080248;27;21084;-53
2022/08/10 14:24:19;;;;;;;2.90;1.42;;;;;;;;;;5077160;27;20229;-54
2022/08/10 14:26:46;;;;;;;2.10;1.58;;;;;;;;;;5075814;27;20229;-53
2022/08/10 14:29:12;;;;;;;2.30;1.40;;;;;;;;;;5086047;27;20231;-53
2022/08/10 14:31:42;;;;;;;1.42;1.33;;;;;;;;;;5077611;27;20230;-53
2022/08/10 14:34:09;;;;;;;1.65;1.48;;;;;;;;;;5074979;27;20287;-53
2022/08/10 14:36:40;;;;;;;1.35;1.25;;;;;;;;;;5080113;27;20762;-53
2022/08/10 14:39:08;;;;;;;2.13;1.45;;;;;;;;;;5079038;27;20329;-53
2022/08/10 14:41:36;;;;;;;2.50;1.40;;;;;;;;;;5077684;27;20234;-53
2022/08/10 14:44:04;;;;;;;2.15;1.50;;;;;;;;;;5073393;27;20250;-53
2022/08/10 14:46:32;;;;;;;2.35;1.20;;;;;;;;;;5083584;27;20235;-55
2022/08/10 14:49:00;;;;;;;1.67;1.40;;;;;;;;;;5080311;27;20243;-53
2022/08/10 14:51:27;;;;;;;4.68;1.67;;;;;;;;;;5083883;27;20601;-53
2022/08/10 14:53:54;;;;;;;3.53;1.73;;;;;;;;;;5074120;27;20223;-53
2022/08/10 14:56:26;;;;;;;2.05;1.35;;;;;;;;;;5075312;27;20235;-53